Time;durP1;ratioP1;P1;durP2;ratioP2;P2;SDS_P1;SDS_P2;PMS_P1;PMS_P2;Temp;Humidity;BMP_temperature;BMP_pressure;BME280_temperature;BME280_humidity;BME280_pressure;Samples;Min_cycle;Max_cycle;Signal;HPM_P1;HPM_P2
2023/06/17 00:01:54;;;;;;;10.60;5.60;;;;;;;17.30;50.45;100049.69;1707132;83;21403;-54
2023/06/17 00:05:02;;;;;;;8.53;5.42;;;;;;;17.26;50.46;100048.46;1706634;82;21379;-54
2023/06/17 00:08:08;;;;;;;7.83;5.00;;;;;;;17.22;50.54;100060.21;1706521;82;21371;-54
2023/06/17 00:11:13;;;;;;;7.97;4.60;;;;;;;17.18;50.60;100052.04;1708734;83;21442;-54
2023/06/17 00:14:20;;;;;;;10.82;4.83;;;;;;;17.13;50.67;100054.11;1709142;82;21355;-54
2023/06/17 00:17:26;;;;;;;10.40;5.95;;;;;;;17.12;50.82;100058.48;1706557;83;21702;-54
2023/06/17 00:20:36;;;;;;;11.55;5.80;;;;;;;17.11;50.93;100055.42;1721155;81;21370;-54
2023/06/17 00:23:40;;;;;;;11.38;5.92;;;;;;;17.09;51.04;100060.32;1730540;81;21863;-53
2023/06/17 00:26:48;;;;;;;8.55;5.28;;;;;;;17.08;51.16;100055.84;1730587;82;21343;-54
2023/06/17 00:29:54;;;;;;;9.10;5.58;;;;;;;17.09;51.33;100058.94;1730101;81;21313;-54
2023/06/17 00:33:00;;;;;;;8.88;6.00;;;;;;;17.09;51.44;100060.32;1730833;82;21445;-54
2023/06/17 00:36:07;;;;;;;8.38;5.62;;;;;;;17.08;51.52;100053.93;1702392;84;21308;-54
2023/06/17 00:39:14;;;;;;;9.10;5.75;;;;;;;17.07;51.56;100064.70;1701894;83;21244;-54
2023/06/17 00:42:19;;;;;;;11.43;5.97;;;;;;;17.04;51.58;100050.47;1730274;82;21367;-53
2023/06/17 00:45:26;;;;;;;9.65;5.85;;;;;;;17.01;51.58;100054.55;1733078;82;21362;-55
2023/06/17 00:48:32;;;;;;;12.50;6.58;;;;;;;16.99;51.63;100057.20;1730616;82;21527;-56
2023/06/17 00:51:38;;;;;;;10.72;5.95;;;;;;;16.96;51.65;100057.66;1703088;84;21343;-54
2023/06/17 00:54:49;;;;;;;10.58;5.95;;;;;;;16.93;51.72;100053.95;1730181;81;22001;-54
2023/06/17 00:57:57;;;;;;;9.48;5.97;;;;;;;16.91;51.80;100058.33;1733129;81;21398;-55
2023/06/17 01:01:04;;;;;;;12.15;5.95;;;;;;;16.87;51.83;100052.92;1730259;82;21213;-55
2023/06/17 01:04:11;;;;;;;10.28;5.72;;;;;;;16.84;51.87;100055.31;1731912;81;21390;-55
2023/06/17 01:07:40;;;;;;;8.78;6.08;;;;;;;16.80;51.93;100056.30;1730501;82;21706;-54
2023/06/17 01:11:00;;;;;;;10.65;5.78;;;;;;;16.78;52.01;100059.81;1730896;82;21347;-55
2023/06/17 01:14:08;;;;;;;11.10;6.47;;;;;;;16.76;52.10;100055.59;1731211;81;21879;-55
2023/06/17 01:17:18;;;;;;;16.52;6.67;;;;;;;16.74;52.22;100059.10;1702547;83;21354;-54
2023/06/17 01:20:22;;;;;;;12.75;5.65;;;;;;;16.72;52.30;100059.85;1706213;78;21439;-54
2023/06/17 01:23:31;;;;;;;9.28;5.80;;;;;;;16.70;52.32;100055.93;1728726;82;21251;-55
2023/06/17 01:26:37;;;;;;;8.30;5.45;;;;;;;16.67;52.36;100056.91;1731642;82;21370;-54
2023/06/17 01:29:43;;;;;;;10.08;5.97;;;;;;;16.66;52.45;100052.45;1700184;84;21228;-54
2023/06/17 01:32:52;;;;;;;9.95;5.60;;;;;;;16.62;52.49;100051.23;1731126;82;21354;-54
2023/06/17 01:36:35;;;;;;;10.93;6.10;;;;;;;16.57;52.53;100048.27;1730851;82;21342;-54
2023/06/17 01:39:43;;;;;;;9.75;5.83;;;;;;;16.53;52.58;100049.77;1703802;83;21400;-54
2023/06/17 01:42:52;;;;;;;9.45;6.40;;;;;;;16.48;52.67;100048.20;1703310;83;21502;-55
2023/06/17 01:45:58;;;;;;;13.13;6.20;;;;;;;16.44;52.84;100050.03;1728955;82;21339;-55
2023/06/17 01:49:05;;;;;;;12.03;5.45;;;;;;;16.46;52.98;100053.13;1730428;82;21394;-54
2023/06/17 01:52:11;;;;;;;8.08;5.87;;;;;;;16.46;53.04;100053.95;1701841;84;21784;-54
2023/06/17 01:55:17;;;;;;;9.80;6.08;;;;;;;16.43;53.04;100049.70;1703846;84;21197;-55
2023/06/17 01:58:24;;;;;;;8.95;5.28;;;;;;;16.40;53.03;100046.00;1729929;81;21402;-54
2023/06/17 02:01:29;;;;;;;11.03;6.37;;;;;;;16.35;53.04;100049.95;1732110;82;21394;-54
2023/06/17 02:04:35;;;;;;;12.58;6.03;;;;;;;16.35;53.20;100054.09;1731814;82;21362;-54
2023/06/17 02:07:43;;;;;;;11.40;6.53;;;;;;;16.36;53.30;100050.26;1703679;84;21450;-54
2023/06/17 02:10:49;;;;;;;11.12;5.58;;;;;;;16.37;53.43;100045.59;1702904;83;21406;-55
2023/06/17 02:13:55;;;;;;;11.25;6.25;;;;;;;16.39;53.49;100044.28;1704356;84;21846;-54
2023/06/17 02:17:00;;;;;;;14.63;5.65;;;;;;;16.41;53.56;100046.30;1732026;82;21358;-54
2023/06/17 02:20:09;;;;;;;9.20;5.97;;;;;;;16.42;53.65;100048.02;1731662;82;21366;-55
2023/06/17 02:23:16;;;;;;;11.38;6.22;;;;;;;16.47;53.75;100045.14;1721974;82;21382;-54
2023/06/17 02:26:24;;;;;;;8.48;5.37;;;;;;;16.50;53.85;100049.70;1732140;82;21228;-54
2023/06/17 02:29:29;;;;;;;9.90;5.83;;;;;;;16.55;53.99;100049.88;1729729;82;21922;-54
2023/06/17 02:32:37;;;;;;;11.28;6.72;;;;;;;16.62;54.13;100053.98;1732447;82;21828;-55
2023/06/17 02:35:43;;;;;;;14.60;6.80;;;;;;;16.67;54.22;100055.00;1731437;82;21395;-55
2023/06/17 02:38:50;;;;;;;11.57;6.17;;;;;;;16.72;54.24;100052.41;1729323;82;21486;-55
2023/06/17 02:41:56;;;;;;;13.50;6.17;;;;;;;16.79;54.31;100053.75;1731662;82;21390;-53
2023/06/17 02:45:01;;;;;;;10.35;6.03;;;;;;;16.85;54.42;100053.70;1729616;82;21351;-54
2023/06/17 02:48:07;;;;;;;12.03;6.37;;;;;;;16.94;54.50;100058.41;1731237;81;21374;-55
2023/06/17 02:51:13;;;;;;;11.43;5.92;;;;;;;17.02;54.56;100056.75;1732496;82;21398;-54
2023/06/17 02:54:20;;;;;;;9.78;6.28;;;;;;;17.09;54.65;100052.88;1702570;83;21379;-54
2023/06/17 02:57:27;;;;;;;10.50;5.92;;;;;;;17.19;54.72;100055.10;1702918;84;21880;-54
2023/06/17 03:00:33;;;;;;;10.93;5.78;;;;;;;17.26;54.74;100050.37;1701862;84;21347;-55
2023/06/17 03:03:41;;;;;;;12.07;6.20;;;;;;;17.33;54.76;100058.91;1701435;83;21226;-54
2023/06/17 03:06:50;;;;;;;12.23;6.17;;;;;;;17.41;54.81;100057.80;1703906;84;21919;-55
2023/06/17 03:09:57;;;;;;;7.78;5.87;;;;;;;17.49;54.86;100055.59;1731232;82;21346;-55
2023/06/17 03:13:04;;;;;;;10.50;6.65;;;;;;;17.56;54.90;100055.01;1703556;83;21339;-55
2023/06/17 03:16:09;;;;;;;12.03;5.92;;;;;;;17.64;54.87;100053.84;1729214;82;21900;-55
2023/06/17 03:19:17;;;;;;;10.43;6.33;;;;;;;17.69;54.85;100056.26;1724711;82;21397;-54
2023/06/17 03:22:23;;;;;;;9.30;6.30;;;;;;;17.76;54.92;100054.77;1730571;79;21904;-53
2023/06/17 03:25:31;;;;;;;8.60;6.40;;;;;;;17.83;54.94;100052.78;1707113;83;21737;-54
2023/06/17 03:28:37;;;;;;;14.13;5.97;;;;;;;17.90;55.01;100054.95;1706733;82;21816;-54
2023/06/17 03:31:45;;;;;;;9.25;5.85;;;;;;;17.98;55.04;100058.80;1706883;83;21757;-55
2023/06/17 03:34:53;;;;;;;12.07;5.92;;;;;;;18.07;55.07;100049.62;1706472;82;21275;-56
2023/06/17 03:38:01;;;;;;;9.53;5.58;;;;;;;18.14;55.11;100051.22;1706471;82;21201;-56
2023/06/17 03:41:06;;;;;;;9.85;6.05;;;;;;;18.24;55.15;100049.28;1706546;83;21212;-53
2023/06/17 03:44:14;;;;;;;12.30;6.33;;;;;;;18.31;55.16;100051.44;1706329;82;21216;-54
2023/06/17 03:47:20;;;;;;;11.70;6.12;;;;;;;18.40;55.18;100059.23;1708552;82;21217;-54
2023/06/17 03:50:26;;;;;;;9.25;5.70;;;;;;;18.49;55.22;100064.74;1707205;83;21763;-56
2023/06/17 03:53:35;;;;;;;10.25;6.20;;;;;;;18.58;55.22;100061.97;1706665;82;21228;-54
2023/06/17 03:56:42;;;;;;;8.55;5.65;;;;;;;18.67;55.23;100052.23;1707864;82;21283;-54
2023/06/17 03:59:49;;;;;;;13.22;6.37;;;;;;;18.78;55.30;100054.19;1711266;82;21256;-54
2023/06/17 04:02:59;;;;;;;9.98;5.72;;;;;;;18.88;55.36;100058.63;1706431;82;21260;-54
2023/06/17 04:06:04;;;;;;;7.70;5.30;;;;;;;19.00;55.42;100060.87;1706546;82;21548;-54
2023/06/17 04:09:12;;;;;;;11.60;5.85;;;;;;;19.13;55.45;100059.81;1706419;82;21805;-54
2023/06/17 04:12:17;;;;;;;8.68;5.97;;;;;;;19.26;55.52;100057.67;1709976;82;21252;-54
2023/06/17 04:15:25;;;;;;;11.12;6.10;;;;;;;19.41;55.55;100064.71;1697890;84;21221;-54
2023/06/17 04:18:31;;;;;;;10.32;6.05;;;;;;;19.55;55.57;100061.42;1706608;82;21236;-55
2023/06/17 04:21:39;;;;;;;10.18;5.78;;;;;;;19.70;55.58;100059.55;1706373;83;21209;-54
2023/06/17 04:24:45;;;;;;;8.43;5.80;;;;;;;19.83;55.55;100051.83;1729965;81;21193;-54
2023/06/17 04:27:53;;;;;;;7.40;5.33;;;;;;;19.98;55.53;100057.70;1690324;84;21884;-54
2023/06/17 04:31:02;;;;;;;12.95;5.72;;;;;;;20.12;55.49;100059.69;1689431;85;21379;-55
2023/06/17 04:34:12;;;;;;;8.95;5.95;;;;;;;20.24;55.46;100054.42;1689453;85;22021;-54
2023/06/17 04:37:18;;;;;;;9.48;5.80;;;;;;;20.36;55.39;100051.05;1689842;85;21938;-54
2023/06/17 04:40:24;;;;;;;11.60;5.95;;;;;;;20.52;55.31;100060.53;1689321;84;21376;-55
2023/06/17 04:43:36;;;;;;;7.60;5.60;;;;;;;20.66;55.29;100055.00;1729486;82;21370;-55
2023/06/17 04:46:43;;;;;;;9.38;5.22;;;;;;;20.79;55.24;100058.30;1733016;82;21366;-54
2023/06/17 04:49:51;;;;;;;9.53;5.60;;;;;;;20.95;55.12;100061.37;1732801;82;21924;-55
2023/06/17 04:53:03;;;;;;;9.65;5.10;;;;;;;21.10;54.99;100057.48;1698013;84;21379;-55
2023/06/17 04:56:06;;;;;;;8.53;5.33;;;;;;;21.23;54.88;100059.95;1730745;83;21390;-55
2023/06/17 04:59:11;;;;;;;11.33;5.30;;;;;;;21.36;54.70;100054.05;1704129;84;21387;-54
2023/06/17 05:02:21;;;;;;;8.60;5.60;;;;;;;21.46;54.53;100060.61;1703551;84;21217;-54
2023/06/17 05:05:27;;;;;;;6.97;5.10;;;;;;;21.58;54.40;100064.14;1730537;82;21849;-54
2023/06/17 05:08:33;;;;;;;10.40;5.37;;;;;;;21.69;54.17;100062.38;1682584;84;21240;-55
2023/06/17 05:11:42;;;;;;;7.72;5.30;;;;;;;21.79;54.02;100060.59;1732537;83;21355;-54
2023/06/17 05:14:48;;;;;;;14.33;5.40;;;;;;;21.89;53.91;100063.55;1733094;83;21904;-55
2023/06/17 05:17:53;;;;;;;6.62;5.20;;;;;;;22.01;53.73;100060.62;1733481;83;21384;-54
2023/06/17 05:21:01;;;;;;;8.55;5.60;;;;;;;22.10;53.52;100058.52;1733470;82;21212;-54
2023/06/17 05:24:08;;;;;;;8.90;5.12;;;;;;;22.20;53.40;100060.59;1683525;84;21371;-54
2023/06/17 05:27:15;;;;;;;13.22;5.03;;;;;;;22.31;53.25;100065.20;1690693;84;21746;-56
2023/06/17 05:30:24;;;;;;;7.45;5.10;;;;;;;22.44;53.09;100061.20;1690048;84;21631;-55
2023/06/17 05:33:31;;;;;;;9.33;5.53;;;;;;;22.56;52.95;100064.72;1672442;84;21742;-56
2023/06/17 05:36:36;;;;;;;8.05;5.53;;;;;;;22.66;52.74;100067.63;1628839;86;21321;-55
2023/06/17 05:39:44;;;;;;;9.10;6.00;;;;;;;22.76;52.59;100066.33;1675170;85;21379;-54
2023/06/17 05:42:51;;;;;;;9.33;5.42;;;;;;;22.87;52.42;100071.77;1676785;85;21898;-55
2023/06/17 05:45:58;;;;;;;8.23;5.33;;;;;;;23.00;52.27;100080.27;1676906;85;21403;-57
2023/06/17 05:49:04;;;;;;;7.12;4.87;;;;;;;23.09;52.12;100071.69;1678692;84;21384;-55
2023/06/17 05:52:11;;;;;;;7.47;5.50;;;;;;;23.17;51.88;100079.05;1624688;87;21205;-54
2023/06/17 05:55:17;;;;;;;7.08;5.00;;;;;;;23.23;51.67;100070.17;1673233;85;21268;-55
2023/06/17 05:58:24;;;;;;;8.63;4.97;;;;;;;23.32;51.47;100072.79;1675497;84;21258;-54
2023/06/17 06:01:33;;;;;;;9.48;5.75;;;;;;;23.41;51.33;100080.96;1667197;84;21734;-53
2023/06/17 06:04:39;;;;;;;9.33;5.95;;;;;;;23.51;51.20;100080.51;1656307;85;21241;-54
2023/06/17 06:07:46;;;;;;;8.35;5.62;;;;;;;23.62;51.06;100078.63;1690056;84;21706;-56
2023/06/17 06:10:51;;;;;;;8.25;5.33;;;;;;;23.73;50.97;100073.94;1690247;85;21229;-56
2023/06/17 06:13:57;;;;;;;9.18;5.85;;;;;;;23.84;50.83;100070.95;1688224;84;21248;-55
2023/06/17 06:17:03;;;;;;;10.90;5.72;;;;;;;23.96;50.62;100070.17;1687598;85;21209;-55
2023/06/17 06:20:09;;;;;;;12.30;5.62;;;;;;;24.05;50.43;100070.00;1689349;84;21209;-54
2023/06/17 06:23:16;;;;;;;5.92;4.85;;;;;;;24.16;50.29;100068.94;1696508;83;21256;-54
2023/06/17 06:26:25;;;;;;;8.08;4.97;;;;;;;24.26;50.17;100064.77;1700824;81;21235;-55
2023/06/17 06:29:32;;;;;;;8.65;4.85;;;;;;;24.40;50.00;100060.39;1722826;83;21547;-55
2023/06/17 06:32:37;;;;;;;7.95;4.90;;;;;;;24.48;49.74;100059.83;1713346;83;21194;-55
2023/06/17 06:35:44;;;;;;;7.53;4.85;;;;;;;24.57;49.58;100062.41;1619182;85;21710;-55
2023/06/17 06:38:52;;;;;;;11.30;4.53;;;;;;;24.66;49.37;100055.17;1691865;84;21737;-55
2023/06/17 06:41:59;;;;;;;8.45;5.00;;;;;;;24.74;49.15;100053.79;1705259;83;21750;-56
2023/06/17 06:45:14;;;;;;;8.15;4.87;;;;;;;24.81;48.90;100050.17;1695835;84;21703;-55
2023/06/17 06:48:21;;;;;;;8.68;4.58;;;;;;;24.85;48.64;100047.94;1689107;84;21792;-56
2023/06/17 06:51:27;;;;;;;6.97;5.17;;;;;;;24.95;48.54;100044.32;1704679;84;21765;-57
2023/06/17 06:54:32;;;;;;;10.30;5.10;;;;;;;25.04;48.37;100038.44;1704457;83;21211;-55
2023/06/17 06:57:41;;;;;;;11.57;5.12;;;;;;;25.12;48.12;100034.27;1698961;83;21879;-55
2023/06/17 07:00:47;;;;;;;8.05;5.35;;;;;;;25.18;47.99;100036.77;1713894;83;21224;-55
2023/06/17 07:03:54;;;;;;;7.95;4.83;;;;;;;25.29;47.81;100044.05;1705131;83;21240;-54
2023/06/17 07:07:00;;;;;;;7.85;4.92;;;;;;;25.36;47.62;100039.05;1700785;83;21213;-56
2023/06/17 07:10:06;;;;;;;7.83;4.95;;;;;;;25.46;47.46;100039.61;1724014;82;21220;-55
2023/06/17 07:13:17;;;;;;;11.33;5.20;;;;;;;25.56;47.26;100035.41;1708400;83;21193;-55
2023/06/17 07:16:22;;;;;;;7.60;5.08;;;;;;;25.61;47.03;100035.41;1708776;83;21186;-54
2023/06/17 07:19:29;;;;;;;6.92;4.95;;;;;;;25.67;46.84;100037.89;1708476;84;21253;-55
2023/06/17 07:22:36;;;;;;;10.85;5.33;;;;;;;25.77;46.70;100039.84;1705172;83;21729;-58
2023/06/17 07:25:43;;;;;;;7.72;4.97;;;;;;;25.86;46.55;100038.16;1701358;83;21213;-55
2023/06/17 07:28:51;;;;;;;13.45;5.17;;;;;;;25.94;46.26;100036.18;1703837;81;21245;-55
2023/06/17 07:31:55;;;;;;;9.53;5.35;;;;;;;25.98;45.97;100034.47;1722284;82;21228;-55
2023/06/17 07:35:01;;;;;;;10.63;5.47;;;;;;;26.06;45.86;100037.58;1724393;82;21260;-57
2023/06/17 07:38:08;;;;;;;13.70;5.90;;;;;;;26.18;45.74;100035.28;1706715;82;21272;-55
2023/06/17 07:41:13;;;;;;;8.38;5.40;;;;;;;26.26;45.47;100039.45;1695752;84;21222;-56
2023/06/17 07:44:18;;;;;;;9.00;5.35;;;;;;;26.32;45.23;100036.34;1695387;84;21222;-55
2023/06/17 07:47:23;;;;;;;9.98;5.53;;;;;;;26.41;44.97;100033.78;1694597;84;21284;-55
2023/06/17 07:50:30;;;;;;;5.95;5.33;;;;;;;26.51;44.78;100035.70;1695609;84;21219;-56
2023/06/17 07:53:35;;;;;;;9.08;5.40;;;;;;;26.58;44.54;100034.81;1690657;82;21205;-55
2023/06/17 07:56:40;;;;;;;9.30;5.25;;;;;;;26.64;44.27;100032.27;1694848;84;21620;-55
2023/06/17 07:59:46;;;;;;;7.22;5.05;;;;;;;26.74;44.11;100024.65;1695186;84;21237;-56
2023/06/17 08:02:52;;;;;;;10.60;5.30;;;;;;;26.79;43.83;100027.98;1694899;84;21216;-56
2023/06/17 08:05:59;;;;;;;11.00;6.20;;;;;;;26.75;43.53;100026.32;1714407;83;21186;-56
2023/06/17 08:09:06;;;;;;;10.43;5.58;;;;;;;26.81;43.40;100023.78;1718505;82;21268;-55
2023/06/17 08:12:13;;;;;;;7.15;5.28;;;;;;;26.94;43.30;100023.69;1724471;83;21830;-56
2023/06/17 08:15:19;;;;;;;9.53;5.17;;;;;;;27.06;43.16;100026.96;1670969;84;21773;-55
2023/06/17 08:18:23;;;;;;;8.03;5.37;;;;;;;27.19;43.02;100024.34;1720204;82;21236;-56
2023/06/17 08:21:29;;;;;;;7.83;5.05;;;;;;;27.26;42.75;100026.27;1718447;83;21200;-56
2023/06/17 08:24:36;;;;;;;12.65;5.20;;;;;;;27.27;42.47;100025.72;1708764;82;21232;-56
2023/06/17 08:27:47;;;;;;;11.25;5.40;;;;;;;27.31;42.28;100031.86;1723193;82;21213;-55
2023/06/17 08:30:52;;;;;;;11.68;5.50;;;;;;;27.37;42.11;100033.48;1731113;82;21204;-58
2023/06/17 08:33:58;;;;;;;6.08;4.80;;;;;;;27.44;41.88;100021.90;1699010;82;21362;-56
2023/06/17 08:37:05;;;;;;;12.88;5.20;;;;;;;27.50;41.79;100032.81;1702795;83;21264;-56
2023/06/17 08:40:11;;;;;;;7.20;5.30;;;;;;;27.59;41.64;100029.63;1702987;84;21251;-56
2023/06/17 08:43:18;;;;;;;8.83;5.53;;;;;;;27.59;41.35;100022.59;1699098;83;21761;-53
2023/06/17 08:46:25;;;;;;;7.78;4.90;;;;;;;27.60;41.28;100022.03;1687526;85;21821;-55
2023/06/17 08:49:33;;;;;;;13.30;5.20;;;;;;;27.57;41.01;100020.67;1684303;84;21252;-55
2023/06/17 08:52:41;;;;;;;6.67;4.87;;;;;;;27.57;40.87;100016.45;1712207;83;21734;-55
2023/06/17 08:55:49;;;;;;;7.62;5.00;;;;;;;27.60;40.79;100021.48;1708849;83;21760;-55
2023/06/17 08:58:55;;;;;;;7.25;5.40;;;;;;;27.65;40.67;100024.22;1703574;84;21386;-54
2023/06/17 09:02:01;;;;;;;6.40;4.60;;;;;;;27.71;40.52;100017.42;1712222;83;21378;-56
2023/06/17 09:05:07;;;;;;;6.60;4.60;;;;;;;27.74;40.38;100028.64;1704053;83;21268;-55
2023/06/17 09:08:14;;;;;;;7.72;4.42;;;;;;;27.83;40.30;100031.92;1704321;83;21378;-56
2023/06/17 09:11:21;;;;;;;7.58;4.95;;;;;;;27.93;40.07;100035.22;1717188;82;21227;-53
2023/06/17 09:14:28;;;;;;;7.03;5.37;;;;;;;27.94;39.86;100020.59;1718157;83;21267;-55
2023/06/17 09:17:39;;;;;;;5.85;4.50;;;;;;;27.99;39.66;100020.55;1715755;83;21239;-55
2023/06/17 09:20:46;;;;;;;7.92;4.65;;;;;;;27.99;39.40;100010.11;1703772;83;21214;-55
2023/06/17 09:23:47;;;;;;;8.30;5.15;;;;;;;28.11;39.40;100013.92;1687161;83;21569;-55
2023/06/17 09:26:54;;;;;;;9.15;5.10;;;;;;;28.20;39.26;100017.73;1720876;83;21204;-56
2023/06/17 09:30:14;;;;;;;7.60;5.20;;;;;;;28.22;39.08;100017.72;1731584;80;21267;-56
2023/06/17 09:33:30;;;;;;;7.83;5.10;;;;;;;28.37;39.06;100012.48;1724954;83;21265;-56
2023/06/17 09:36:37;;;;;;;16.02;5.50;;;;;;;28.56;38.91;100014.20;1712864;83;21192;-57
2023/06/17 09:39:43;;;;;;;7.60;5.55;;;;;;;28.48;38.50;100019.09;1698052;83;21212;-55
2023/06/17 09:42:52;;;;;;;6.92;4.72;;;;;;;28.36;38.36;100019.23;1706338;83;21493;-55
2023/06/17 09:46:07;;;;;;;7.62;5.55;;;;;;;28.40;38.34;100006.23;1706313;83;21703;-56
2023/06/17 09:49:23;;;;;;;6.83;4.57;;;;;;;28.53;38.31;100012.55;1702619;83;21186;-55
2023/06/17 09:52:26;;;;;;;5.83;4.83;;;;;;;28.54;38.20;100007.20;1687160;85;21242;-55
2023/06/17 09:55:32;;;;;;;10.13;5.50;;;;;;;28.58;38.10;100009.66;1701185;83;21219;-55
2023/06/17 09:58:38;;;;;;;7.37;5.12;;;;;;;28.65;37.98;100003.09;1699096;83;21193;-54
2023/06/17 10:01:44;;;;;;;8.93;4.92;;;;;;;28.81;37.94;99996.10;1723083;82;21759;-57
2023/06/17 10:04:52;;;;;;;9.63;5.20;;;;;;;28.92;37.81;99987.75;1701263;83;21254;-55
2023/06/17 10:08:00;;;;;;;8.68;5.40;;;;;;;28.84;37.50;99999.72;1696142;84;21253;-57
2023/06/17 10:11:11;;;;;;;7.10;5.30;;;;;;;28.70;37.38;99986.13;1696838;84;21229;-57
2023/06/17 10:14:24;;;;;;;7.42;5.33;;;;;;;28.67;37.39;100001.64;1696023;83;21755;-56
2023/06/17 10:17:32;;;;;;;7.42;4.60;;;;;;;28.65;37.25;99983.38;1696880;83;21211;-55
2023/06/17 10:20:38;;;;;;;6.17;5.20;;;;;;;28.56;37.16;99980.98;1695751;84;21705;-56
2023/06/17 10:23:46;;;;;;;10.38;5.15;;;;;;;28.70;37.36;99976.27;1696326;84;21222;-57
2023/06/17 10:26:54;;;;;;;7.37;5.40;;;;;;;28.98;37.42;99987.94;1696563;84;21277;-54
2023/06/17 10:30:06;;;;;;;5.75;4.60;;;;;;;29.03;37.24;99974.58;1699053;83;21378;-56
2023/06/17 10:33:12;;;;;;;9.33;4.85;;;;;;;29.11;37.17;99971.69;1682894;83;21261;-55
2023/06/17 10:36:19;;;;;;;7.17;5.10;;;;;;;29.31;37.26;99967.66;1715322;83;21197;-55
2023/06/17 10:39:25;;;;;;;6.42;5.03;;;;;;;29.56;37.31;99978.52;1647525;85;21275;-56
2023/06/17 10:42:33;;;;;;;8.58;5.47;;;;;;;29.78;37.24;99978.09;1716063;82;21275;-56
2023/06/17 10:45:43;;;;;;;10.28;5.05;;;;;;;29.81;36.98;99967.59;1717254;83;21244;-56
2023/06/17 10:48:49;;;;;;;7.85;4.53;;;;;;;29.81;36.98;99967.59;1712031;83;21242;-56
2023/06/17 10:51:59;;;;;;;8.60;5.22;;;;;;;29.91;36.68;99967.39;1651022;85;21289;-56
2023/06/17 10:55:07;;;;;;;6.40;5.10;;;;;;;29.73;35.92;99972.55;1715841;82;21272;-59
2023/06/17 10:58:13;;;;;;;8.88;5.67;;;;;;;29.73;35.92;99972.55;1706673;83;21212;-55
2023/06/17 11:01:19;;;;;;;6.05;4.80;;;;;;;29.62;36.13;99978.08;1714758;83;21304;-56
2023/06/17 11:04:26;;;;;;;11.33;4.60;;;;;;;29.64;36.15;99965.95;1654106;85;21781;-55
2023/06/17 11:07:35;;;;;;;6.45;4.83;;;;;;;29.64;36.15;99965.95;1723451;83;21359;-56
2023/06/17 11:10:41;;;;;;;12.55;4.85;;;;;;;29.91;36.26;99963.16;1725516;83;21474;-55
2023/06/17 11:13:51;;;;;;;6.30;4.78;;;;;;;30.08;36.07;99959.73;1725759;83;21418;-57
2023/06/17 11:16:57;;;;;;;6.25;4.70;;;;;;;30.18;35.92;99947.63;1725538;82;21830;-55
2023/06/17 11:20:05;;;;;;;7.47;4.70;;;;;;;30.19;35.66;99957.77;1724990;83;21328;-55
2023/06/17 11:23:13;;;;;;;8.83;4.58;;;;;;;30.08;35.41;99967.60;1725604;83;21228;-57
2023/06/17 11:26:24;;;;;;;8.10;5.20;;;;;;;29.94;35.20;99954.66;1725607;83;21891;-56
2023/06/17 11:29:35;;;;;;;9.13;5.30;;;;;;;29.94;35.26;99949.02;1725825;83;21415;-56
2023/06/17 11:32:43;;;;;;;10.80;4.90;;;;;;;29.84;35.15;99948.64;1724074;82;21394;-55
2023/06/17 11:35:51;;;;;;;7.10;5.17;;;;;;;29.56;34.88;99960.99;1726001;82;21888;-55
2023/06/17 11:38:56;;;;;;;8.10;4.62;;;;;;;29.30;34.81;99948.52;1726036;82;21355;-54
2023/06/17 11:42:05;;;;;;;7.67;4.67;;;;;;;29.30;34.81;99948.52;1726332;82;21418;-57
2023/06/17 11:45:12;;;;;;;6.87;5.12;;;;;;;29.79;35.26;99945.07;1725622;83;21844;-56
2023/06/17 11:48:19;;;;;;;9.95;4.90;;;;;;;29.79;35.26;99945.07;1725348;83;21456;-56
2023/06/17 11:51:28;;;;;;;6.55;5.17;;;;;;;30.03;35.36;99939.47;1689374;83;21292;-57
2023/06/17 11:54:35;;;;;;;10.35;5.05;;;;;;;30.19;35.20;99946.47;1725764;83;21332;-55
2023/06/17 11:57:43;;;;;;;8.20;5.35;;;;;;;30.15;34.98;99942.61;1725760;82;21359;-57
2023/06/17 12:00:50;;;;;;;6.28;5.10;;;;;;;30.24;34.92;99949.22;1725729;83;21446;-57
2023/06/17 12:03:58;;;;;;;7.67;4.92;;;;;;;30.30;34.81;99948.55;1726500;82;21252;-55
2023/06/17 12:07:07;;;;;;;8.95;4.65;;;;;;;30.44;34.81;99949.36;1725877;82;21344;-57
2023/06/17 12:10:15;;;;;;;8.78;4.80;;;;;;;30.54;34.31;99949.13;1733442;82;21476;-57
2023/06/17 12:13:20;;;;;;;6.80;4.45;;;;;;;30.41;34.46;99942.33;1692418;83;21275;-55
2023/06/17 12:16:35;;;;;;;6.28;4.53;;;;;;;30.39;34.39;99936.75;1733271;82;21363;-55
2023/06/17 12:19:41;;;;;;;8.83;4.90;;;;;;;30.46;34.33;99938.58;1725840;82;21923;-55
2023/06/17 12:22:47;;;;;;;6.05;4.12;;;;;;;30.42;34.29;99928.48;1678570;82;21248;-56
2023/06/17 12:25:54;;;;;;;5.45;4.53;;;;;;;30.52;34.38;99932.47;1732977;82;21363;-55
2023/06/17 12:29:03;;;;;;;7.03;4.33;;;;;;;30.64;34.36;99928.52;1726141;82;21367;-55
2023/06/17 12:32:10;;;;;;;12.05;5.10;;;;;;;30.72;34.29;99932.58;1690267;85;21214;-55
2023/06/17 12:35:17;;;;;;;7.15;4.50;;;;;;;30.80;34.22;99923.37;1720602;82;21205;-55
2023/06/17 12:38:23;;;;;;;5.92;4.35;;;;;;;30.89;34.14;99923.45;1690277;84;21222;-56
2023/06/17 12:41:31;;;;;;;7.28;5.22;;;;;;;30.88;33.95;99919.78;1691821;84;21214;-56
2023/06/17 12:44:37;;;;;;;6.97;4.70;;;;;;;30.80;33.80;99923.94;1686097;85;21219;-57
2023/06/17 12:47:43;;;;;;;8.68;4.75;;;;;;;30.81;33.83;99914.31;1674456;84;21290;-57
2023/06/17 12:50:50;;;;;;;7.83;4.90;;;;;;;30.82;33.75;99918.23;1690619;84;21325;-57
2023/06/17 12:53:58;;;;;;;6.90;4.80;;;;;;;30.74;33.69;99913.31;1691220;85;21273;-58
2023/06/17 12:57:04;;;;;;;10.03;5.20;;;;;;;30.70;33.62;99912.87;1692023;83;21258;-55
2023/06/17 13:00:14;;;;;;;8.98;5.30;;;;;;;30.63;33.59;99914.72;1691410;85;21230;-56
2023/06/17 13:03:23;;;;;;;8.63;4.50;;;;;;;30.56;33.43;99919.39;1677942;85;21802;-56
2023/06/17 13:06:30;;;;;;;7.47;5.10;;;;;;;30.38;33.36;99911.08;1691852;85;21222;-55
2023/06/17 13:09:36;;;;;;;8.33;4.83;;;;;;;30.23;33.32;99908.02;1678148;84;21327;-56
2023/06/17 13:12:43;;;;;;;10.58;5.20;;;;;;;30.06;33.33;99903.57;1691521;85;21827;-57
2023/06/17 13:15:50;;;;;;;6.70;4.40;;;;;;;29.99;33.42;99908.79;1674147;84;21389;-56
2023/06/17 13:18:58;;;;;;;6.62;4.67;;;;;;;30.00;33.50;99907.63;1691319;84;21215;-56
2023/06/17 13:22:04;;;;;;;6.50;4.55;;;;;;;30.09;33.54;99909.99;1691304;85;22206;-56
2023/06/17 13:25:12;;;;;;;7.65;5.12;;;;;;;30.11;33.40;99906.85;1691422;83;21290;-56
2023/06/17 13:28:20;;;;;;;6.83;4.78;;;;;;;30.05;33.29;99906.11;1690391;85;21321;-54
2023/06/17 13:31:25;;;;;;;7.22;4.47;;;;;;;30.01;33.37;99902.26;1690626;85;21771;-55
2023/06/17 13:34:32;;;;;;;8.58;5.72;;;;;;;30.03;33.41;99894.28;1688232;78;21264;-56
2023/06/17 13:37:37;;;;;;;8.50;4.60;;;;;;;30.18;33.40;99902.44;1704892;83;21722;-56
2023/06/17 13:43:28;;;;;;;6.85;5.05;;;;;;;30.14;33.26;99900.00;1847042;76;28094;-55
2023/06/17 13:46:35;;;;;;;7.67;5.00;;;;;;;30.08;33.31;99901.84;1772206;80;21196;-56
2023/06/17 13:49:41;;;;;;;8.83;5.45;;;;;;;30.12;33.30;99900.05;1771898;79;21259;-56
2023/06/17 13:52:47;;;;;;;9.95;5.10;;;;;;;30.18;33.35;99892.55;1772860;79;21758;-55
2023/06/17 13:55:56;;;;;;;7.40;4.78;;;;;;;30.26;33.36;99896.64;1771630;80;21193;-57
2023/06/17 13:59:04;;;;;;;13.65;5.22;;;;;;;30.22;33.22;99892.20;1773399;79;21398;-55
2023/06/17 14:02:10;;;;;;;7.30;4.70;;;;;;;30.22;33.18;99890.78;1772317;80;21306;-55
2023/06/17 14:05:17;;;;;;;8.38;4.95;;;;;;;30.24;33.17;99895.55;1771812;80;21328;-56
2023/06/17 14:08:23;;;;;;;7.65;4.90;;;;;;;30.19;33.10;99883.52;1769841;79;21374;-57
2023/06/17 14:11:30;;;;;;;9.75;5.30;;;;;;;30.11;33.09;99883.66;1770497;80;21196;-55
2023/06/17 14:14:36;;;;;;;8.83;5.62;;;;;;;30.10;33.14;99886.80;1758349;79;21212;-57
2023/06/17 14:17:42;;;;;;;8.00;5.22;;;;;;;30.11;33.20;99878.61;1741363;82;21193;-56
2023/06/17 14:20:49;;;;;;;7.50;5.20;;;;;;;30.19;33.07;99877.27;1739603;82;21217;-55
2023/06/17 14:24:06;;;;;;;7.15;5.35;;;;;;;30.24;33.18;99887.08;1740582;81;21212;-55
2023/06/17 14:27:29;;;;;;;5.78;5.05;;;;;;;30.08;33.06;99880.66;1742442;81;21765;-55
2023/06/17 14:30:35;;;;;;;7.97;5.70;;;;;;;29.99;33.09;99881.97;1741806;82;21240;-56
2023/06/17 14:33:36;;;;;;;9.43;5.83;;;;;;;30.01;33.13;99887.30;1755413;80;21213;-55